Time;durP1;ratioP1;P1;durP2;ratioP2;P2;SDS_P1;SDS_P2;PMS_P1;PMS_P2;Temp;Humidity;BMP_temperature;BMP_pressure;BME280_temperature;BME280_humidity;BME280_pressure;Samples;Min_cycle;Max_cycle;Signal;HPM_P1;HPM_P2
2022/03/27 00:01:04;;;;;;;39.28;16.27;;;;;;;8.20;nan;101441.56;5030509;28;20113;-70
2022/03/27 00:03:30;;;;;;;39.50;16.20;;;;;;;8.14;nan;101433.63;5030939;28;20186;-70
2022/03/27 00:05:55;;;;;;;34.25;15.38;;;;;;;7.76;nan;101384.75;5026595;28;20041;-70
2022/03/27 00:08:21;;;;;;;37.47;14.93;;;;;;;7.88;nan;101416.56;5031419;28;20499;-67
2022/03/27 00:13:30;;;;;;;31.27;15.30;;;;;;;7.72;nan;101422.81;5015301;28;20037;-69
2022/03/27 00:15:55;;;;;;;37.63;16.17;;;;;;;7.63;nan;101427.31;5028272;28;20033;-69
2022/03/27 00:18:21;;;;;;;36.05;15.90;;;;;;;7.54;nan;101417.94;5028009;28;20030;-69
2022/03/27 00:20:47;;;;;;;34.60;16.20;;;;;;;7.42;nan;101425.41;5026710;28;20377;-69
2022/03/27 00:23:12;;;;;;;38.25;16.77;;;;;;;7.36;nan;101426.09;5012794;28;20037;-69
2022/03/27 00:25:38;;;;;;;34.67;15.60;;;;;;;7.22;nan;101419.03;5023537;28;20061;-69
2022/03/27 00:28:03;;;;;;;36.47;15.07;;;;;;;7.13;nan;101420.09;5026351;28;20052;-70
2022/03/27 00:30:29;;;;;;;38.20;16.55;;;;;;;7.10;nan;101430.94;5028094;28;20029;-69
2022/03/27 00:32:54;;;;;;;36.50;16.58;;;;;;;6.93;nan;101414.53;5030423;28;20498;-69
2022/03/27 00:35:20;;;;;;;38.83;16.00;;;;;;;6.77;nan;101391.91;5023020;28;20030;-71
2022/03/27 00:37:45;;;;;;;36.58;16.33;;;;;;;6.47;nan;101364.81;5010987;28;20084;-70
2022/03/27 00:40:14;;;;;;;42.28;15.98;;;;;;;6.30;nan;101356.25;5018196;28;20038;-70
2022/03/27 00:42:40;;;;;;;41.80;17.08;;;;;;;6.44;nan;101400.00;5029815;28;20033;-69
2022/03/27 00:45:06;;;;;;;38.92;17.38;;;;;;;6.43;nan;101413.22;5029714;28;20474;-70
2022/03/27 00:47:32;;;;;;;39.45;17.35;;;;;;;6.35;nan;101424.56;5028531;28;20056;-69
2022/03/27 00:49:57;;;;;;;40.28;16.77;;;;;;;6.20;nan;101413.19;5028493;28;20485;-70
2022/03/27 00:52:22;;;;;;;39.15;16.33;;;;;;;6.21;nan;101425.28;5028882;28;20036;-70
2022/03/27 00:54:48;;;;;;;37.72;17.20;;;;;;;6.14;nan;101427.75;5028581;28;20045;-69
2022/03/27 00:57:13;;;;;;;41.22;17.85;;;;;;;6.09;nan;101420.44;5028002;28;20072;-69
2022/03/27 00:59:38;;;;;;;38.97;17.27;;;;;;;6.00;nan;101410.16;5021851;28;20072;-70
2022/03/27 01:02:04;;;;;;;41.47;16.65;;;;;;;5.88;nan;101396.63;5017390;28;20234;-71
2022/03/27 01:04:29;;;;;;;40.47;17.35;;;;;;;5.83;nan;101404.16;4993848;28;20499;-71
2022/03/27 01:06:55;;;;;;;45.25;17.70;;;;;;;5.82;nan;101412.97;5007557;28;20050;-69
2022/03/27 01:09:36;;;;;;;44.50;17.63;;;;;;;5.65;nan;101394.75;5009906;28;20463;-69
2022/03/27 01:12:22;;;;;;;39.22;16.45;;;;;;;5.74;nan;101419.84;5000338;28;20031;-68
2022/03/27 01:14:52;;;;;;;39.13;15.63;;;;;;;5.52;nan;101407.50;5009380;28;20048;-68
2022/03/27 01:17:20;;;;;;;37.55;15.70;;;;;;;5.46;nan;101400.31;4975088;28;20065;-68
2022/03/27 01:19:51;;;;;;;36.28;16.23;;;;;;;5.45;nan;101417.78;5003483;28;20533;-68
2022/03/27 01:22:18;;;;;;;39.28;17.75;;;;;;;5.19;nan;101378.81;5003552;28;20041;-68
2022/03/27 01:24:44;;;;;;;42.90;16.23;;;;;;;5.29;nan;101404.75;4995318;28;20062;-69
2022/03/27 01:27:10;;;;;;;33.90;15.35;;;;;;;5.27;nan;101409.34;5001130;28;20042;-69
2022/03/27 01:29:36;;;;;;;39.08;16.15;;;;;;;5.28;nan;101416.19;5008873;28;20526;-70
2022/03/27 01:32:03;;;;;;;35.58;15.48;;;;;;;5.17;nan;101408.69;4990752;28;20061;-70
2022/03/27 01:34:29;;;;;;;38.17;16.45;;;;;;;5.21;nan;101423.84;4986005;28;20080;-70
2022/03/27 01:36:55;;;;;;;39.05;16.05;;;;;;;5.16;nan;101425.34;5005091;28;20484;-69
2022/03/27 01:39:20;;;;;;;35.60;16.48;;;;;;;5.10;nan;101421.59;5013479;28;20034;-68
2022/03/27 01:41:46;;;;;;;34.53;15.70;;;;;;;4.94;nan;101405.94;5012795;28;20038;-69
2022/03/27 01:44:17;;;;;;;34.70;15.75;;;;;;;4.88;nan;101408.22;4984935;28;20042;-68
2022/03/27 01:46:44;;;;;;;40.58;16.48;;;;;;;4.96;nan;101425.66;5000196;28;20125;-68
2022/03/27 01:49:12;;;;;;;38.70;16.08;;;;;;;4.97;nan;101426.47;5012818;28;20149;-68
2022/03/27 01:51:38;;;;;;;37.63;15.30;;;;;;;4.87;nan;101410.97;5002876;28;20116;-68
2022/03/27 01:54:04;;;;;;;39.38;16.75;;;;;;;4.94;nan;101435.44;5012516;28;20083;-68
2022/03/27 01:56:30;;;;;;;37.97;16.00;;;;;;;4.90;nan;101437.56;5012064;28;20487;-69
2022/03/27 01:58:56;;;;;;;40.28;16.17;;;;;;;4.86;nan;101430.22;4991246;28;20082;-68
2022/03/27 02:01:21;;;;;;;41.30;16.15;;;;;;;4.71;nan;101413.56;5003126;28;20112;-68
2022/03/27 02:03:48;;;;;;;42.38;16.50;;;;;;;4.65;nan;101407.22;5016159;28;20081;-68
2022/03/27 02:06:13;;;;;;;38.05;16.10;;;;;;;4.69;nan;101419.78;5002397;28;20044;-71
2022/03/27 02:08:40;;;;;;;43.90;16.95;;;;;;;4.65;nan;101420.25;5012520;28;20045;-69
2022/03/27 02:11:06;;;;;;;40.22;16.02;;;;;;;4.69;nan;101422.38;5014938;28;20044;-69
2022/03/27 02:13:32;;;;;;;41.40;17.38;;;;;;;4.65;nan;101425.47;5032007;28;20048;-68
2022/03/27 02:15:58;;;;;;;50.53;17.75;;;;;;;4.66;nan;101427.09;5032495;28;20409;-69
2022/03/27 02:18:28;;;;;;;45.45;18.60;;;;;;;4.56;nan;101416.00;5026426;28;20052;-69
2022/03/27 02:20:54;;;;;;;45.67;18.58;;;;;;;4.52;nan;101422.50;5032023;28;20060;-67
2022/03/27 02:23:21;;;;;;;59.05;22.52;;;;;;;4.41;nan;101411.41;5024002;28;20065;-69
2022/03/27 02:25:47;;;;;;;67.20;23.92;;;;;;;4.46;nan;101429.19;5016640;28;20045;-69
2022/03/27 02:28:13;;;;;;;74.28;27.20;;;;;;;4.37;nan;101430.94;5010589;28;20044;-69
2022/03/27 02:30:38;;;;;;;86.13;29.70;;;;;;;4.36;nan;101442.34;5013503;28;20392;-69
2022/03/27 02:33:04;;;;;;;97.97;32.78;;;;;;;4.35;nan;101440.69;5028011;28;20491;-69
2022/03/27 02:35:30;;;;;;;101.22;32.33;;;;;;;4.29;nan;101454.38;5017979;28;20041;-69
2022/03/27 02:37:55;;;;;;;91.68;31.13;;;;;;;4.24;nan;101438.41;5012413;28;20049;-68
2022/03/27 02:40:20;;;;;;;83.75;29.52;;;;;;;4.28;nan;101436.28;5018683;28;20065;-69
2022/03/27 02:42:46;;;;;;;90.28;29.58;;;;;;;4.32;nan;101454.06;5013454;28;20037;-69
2022/03/27 02:45:11;;;;;;;92.05;31.17;;;;;;;4.28;nan;101442.31;5031619;28;20030;-68
2022/03/27 02:47:37;;;;;;;94.55;30.83;;;;;;;4.32;nan;101448.03;5023490;28;20037;-68
2022/03/27 02:50:05;;;;;;;88.53;30.35;;;;;;;4.29;nan;101446.56;5021986;28;20507;-71
2022/03/27 02:52:32;;;;;;;89.38;30.75;;;;;;;4.30;nan;101456.00;5016784;28;20083;-69
2022/03/27 02:54:58;;;;;;;89.55;31.83;;;;;;;4.21;nan;101444.75;5005539;28;20045;-69
2022/03/27 02:57:24;;;;;;;75.60;28.52;;;;;;;4.18;nan;101444.22;5031374;28;20040;-69
2022/03/27 02:59:52;;;;;;;72.22;27.05;;;;;;;4.28;nan;101457.13;5026586;28;20090;-69
2022/03/27 03:02:18;;;;;;;64.20;24.45;;;;;;;4.29;nan;101470.03;5034341;28;20041;-69
2022/03/27 03:04:44;;;;;;;65.20;24.20;;;;;;;4.17;nan;101453.03;5027607;28;20037;-68
2022/03/27 03:07:09;;;;;;;59.55;23.13;;;;;;;4.10;nan;101449.41;5031518;28;20037;-68
2022/03/27 03:09:34;;;;;;;62.35;21.70;;;;;;;4.20;nan;101470.97;5020996;28;20059;-68
2022/03/27 03:12:00;;;;;;;57.13;22.60;;;;;;;4.12;nan;101463.94;5021802;28;20116;-68
2022/03/27 03:14:26;;;;;;;50.45;21.58;;;;;;;4.25;nan;101489.56;5026008;28;20034;-68
2022/03/27 03:16:52;;;;;;;54.95;19.55;;;;;;;4.15;nan;101478.44;5032990;28;20041;-68
2022/03/27 03:19:18;;;;;;;44.47;19.67;;;;;;;4.21;nan;101488.22;5027492;28;20034;-69
2022/03/27 03:21:43;;;;;;;45.58;19.30;;;;;;;4.16;nan;101485.28;5033330;28;20048;-69
2022/03/27 03:24:09;;;;;;;46.17;19.38;;;;;;;4.11;nan;101480.53;5040548;28;20045;-68
2022/03/27 03:26:35;;;;;;;45.95;18.63;;;;;;;4.03;nan;101470.06;5028117;28;20047;-67
2022/03/27 03:29:00;;;;;;;47.95;18.27;;;;;;;4.01;nan;101491.06;5036099;28;20037;-67
2022/03/27 03:31:26;;;;;;;41.75;17.63;;;;;;;4.00;nan;101489.44;5017033;28;20104;-69
2022/03/27 03:33:51;;;;;;;43.63;17.40;;;;;;;3.89;nan;101475.88;5019009;28;20037;-69
2022/03/27 03:36:17;;;;;;;43.33;17.90;;;;;;;3.87;nan;101491.63;5022319;28;20559;-68
2022/03/27 03:38:42;;;;;;;41.20;17.45;;;;;;;3.76;nan;101478.84;5029913;28;20044;-68
2022/03/27 03:41:08;;;;;;;37.35;16.45;;;;;;;3.78;nan;101503.81;5026422;28;20117;-67
2022/03/27 03:43:37;;;;;;;46.70;16.77;;;;;;;3.59;nan;101497.00;5031019;28;20033;-67
2022/03/27 03:46:06;;;;;;;34.47;15.57;;;;;;;3.57;nan;101506.75;5025916;28;20132;-68
2022/03/27 03:48:32;;;;;;;33.43;15.80;;;;;;;3.46;nan;101504.38;5030970;28;20041;-68
2022/03/27 03:50:58;;;;;;;35.25;16.60;;;;;;;3.33;nan;101498.75;5023548;28;20488;-70
2022/03/27 03:53:25;;;;;;;35.88;16.15;;;;;;;3.27;nan;101496.75;5025297;28;20079;-70
2022/03/27 03:55:50;;;;;;;34.90;16.08;;;;;;;2.92;nan;101448.91;5024898;28;20121;-68
2022/03/27 03:58:16;;;;;;;37.58;16.13;;;;;;;3.16;nan;101503.81;5013094;28;20136;-70
2022/03/27 04:00:42;;;;;;;37.92;15.80;;;;;;;2.96;nan;101476.28;5017565;28;20034;-70
2022/03/27 04:03:09;;;;;;;32.20;15.60;;;;;;;3.10;nan;101506.19;5026968;28;20103;-69
2022/03/27 04:05:34;;;;;;;41.08;15.80;;;;;;;3.01;nan;101497.47;5026394;28;20037;-70
2022/03/27 04:08:00;;;;;;;40.05;16.55;;;;;;;3.02;nan;101503.50;5025102;28;20729;-70
2022/03/27 04:10:27;;;;;;;38.35;16.10;;;;;;;3.08;nan;101508.13;5023740;28;20041;-70
2022/03/27 04:12:52;;;;;;;35.22;15.88;;;;;;;3.01;nan;101494.88;5026490;28;20037;-69
2022/03/27 04:15:18;;;;;;;35.55;16.05;;;;;;;2.93;nan;101485.22;5028710;28;20087;-68
2022/03/27 04:17:44;;;;;;;32.85;15.68;;;;;;;2.95;nan;101506.69;5028645;28;20052;-69
2022/03/27 04:20:11;;;;;;;35.50;15.60;;;;;;;2.96;nan;101508.31;5029993;28;20068;-70
2022/03/27 04:22:36;;;;;;;39.08;15.85;;;;;;;2.91;nan;101502.75;5028501;28;20033;-69
2022/03/27 04:25:02;;;;;;;46.67;16.02;;;;;;;2.84;nan;101503.50;5021089;28;20367;-70
2022/03/27 04:27:27;;;;;;;40.05;15.52;;;;;;;2.85;nan;101507.72;5026934;28;20044;-71
2022/03/27 04:29:53;;;;;;;38.15;16.73;;;;;;;2.73;nan;101502.72;5026497;28;20061;-70
2022/03/27 04:32:18;;;;;;;41.00;16.73;;;;;;;2.70;nan;101508.22;5016741;28;20034;-69
2022/03/27 04:34:43;;;;;;;42.55;17.92;;;;;;;2.81;nan;101522.81;5027274;28;20061;-71
2022/03/27 04:37:09;;;;;;;47.20;18.83;;;;;;;2.74;nan;101514.75;5027117;28;20034;-70
2022/03/27 04:39:34;;;;;;;49.53;18.45;;;;;;;2.70;nan;101507.41;5028755;28;20033;-69
2022/03/27 04:42:00;;;;;;;48.65;21.17;;;;;;;2.74;nan;101529.56;5023246;28;20471;-71
2022/03/27 04:44:25;;;;;;;51.80;20.60;;;;;;;2.71;nan;101532.47;5023803;28;20547;-68
2022/03/27 04:46:51;;;;;;;46.92;18.58;;;;;;;2.72;nan;101537.50;5014503;28;20046;-71
2022/03/27 04:49:16;;;;;;;42.38;18.70;;;;;;;2.70;nan;101534.22;5012057;28;20577;-70
2022/03/27 04:51:42;;;;;;;45.58;18.13;;;;;;;2.62;nan;101533.31;5024193;28;20061;-70
2022/03/27 04:54:07;;;;;;;45.95;18.73;;;;;;;2.58;nan;101532.78;5007669;28;20076;-69
2022/03/27 04:56:32;;;;;;;40.22;17.42;;;;;;;2.47;nan;101518.19;5019650;28;20394;-69
2022/03/27 04:58:58;;;;;;;41.15;17.63;;;;;;;2.58;nan;101540.56;5022018;28;20037;-70
2022/03/27 05:01:23;;;;;;;38.00;17.27;;;;;;;2.58;nan;101545.78;5027806;28;20087;-69
2022/03/27 05:03:49;;;;;;;38.38;17.48;;;;;;;2.52;nan;101538.56;5028950;28;20033;-70
2022/03/27 05:06:16;;;;;;;39.30;17.42;;;;;;;2.59;nan;101555.22;5028859;28;20391;-69
2022/03/27 05:08:44;;;;;;;45.00;18.08;;;;;;;2.52;nan;101538.56;5009923;28;20569;-70
2022/03/27 05:11:09;;;;;;;38.97;17.35;;;;;;;2.59;nan;101549.22;5019883;28;20072;-69
2022/03/27 05:13:34;;;;;;;43.05;17.55;;;;;;;2.59;nan;101544.84;5027784;28;20069;-69
2022/03/27 05:16:00;;;;;;;40.53;17.20;;;;;;;2.68;nan;101562.19;5028979;28;20507;-68
2022/03/27 05:18:25;;;;;;;43.97;18.00;;;;;;;2.70;nan;101562.00;5025666;28;20037;-68
2022/03/27 05:20:51;;;;;;;44.05;17.67;;;;;;;2.72;nan;101562.69;5029164;28;20040;-69
2022/03/27 05:23:16;;;;;;;41.05;18.02;;;;;;;2.71;nan;101561.88;5028222;28;20069;-70
2022/03/27 05:25:44;;;;;;;38.13;17.58;;;;;;;2.86;nan;101571.81;5028507;28;20041;-69
2022/03/27 05:28:10;;;;;;;44.45;19.23;;;;;;;2.93;nan;101565.84;5004303;28;20042;-68
2022/03/27 05:30:36;;;;;;;48.67;20.02;;;;;;;2.93;nan;101559.84;5028710;28;20506;-67
2022/03/27 05:33:03;;;;;;;52.13;19.35;;;;;;;3.02;nan;101574.59;5027359;28;20475;-69
2022/03/27 05:35:29;;;;;;;46.03;21.30;;;;;;;3.06;nan;101565.50;5028194;28;20045;-69
2022/03/27 05:37:55;;;;;;;45.58;21.15;;;;;;;3.15;nan;101575.03;5027848;28;20034;-69
2022/03/27 05:40:21;;;;;;;51.63;20.17;;;;;;;3.14;nan;101565.59;5028610;28;20109;-69
2022/03/27 05:42:48;;;;;;;49.42;20.17;;;;;;;3.25;nan;101574.16;5008420;28;20045;-68
2022/03/27 05:45:14;;;;;;;41.97;19.33;;;;;;;3.32;nan;101577.81;5011008;28;20041;-69
2022/03/27 05:47:43;;;;;;;44.40;19.90;;;;;;;3.27;nan;101561.81;5028680;28;20033;-69
2022/03/27 05:50:11;;;;;;;49.95;19.10;;;;;;;3.39;nan;101571.03;5019751;28;20038;-68
2022/03/27 05:52:37;;;;;;;47.45;19.20;;;;;;;3.54;nan;101590.38;5020764;28;20034;-69
2022/03/27 05:55:03;;;;;;;45.15;19.38;;;;;;;3.61;nan;101591.41;5022685;28;20116;-69
2022/03/27 05:57:29;;;;;;;42.38;18.92;;;;;;;3.68;nan;101596.03;5012025;28;20056;-68
2022/03/27 05:59:54;;;;;;;48.80;20.95;;;;;;;3.73;nan;101591.19;5005284;28;20037;-70
2022/03/27 06:02:20;;;;;;;47.58;20.10;;;;;;;3.84;nan;101596.97;5027880;28;20076;-69
2022/03/27 06:04:45;;;;;;;46.42;20.27;;;;;;;3.87;nan;101584.63;5022655;28;20041;-68
2022/03/27 06:07:11;;;;;;;55.35;21.50;;;;;;;4.01;nan;101603.13;5029863;28;20037;-67
2022/03/27 06:09:37;;;;;;;45.35;20.25;;;;;;;4.09;nan;101602.38;5028716;28;20120;-70
2022/03/27 06:12:04;;;;;;;46.10;21.52;;;;;;;4.13;nan;101595.06;5026739;28;20472;-69
2022/03/27 06:14:29;;;;;;;51.45;20.70;;;;;;;4.30;nan;101596.00;5027847;28;20045;-69
2022/03/27 06:16:55;;;;;;;44.15;19.42;;;;;;;4.43;nan;101612.03;5011330;28;20037;-67
2022/03/27 06:19:21;;;;;;;42.85;19.77;;;;;;;4.45;nan;101603.09;5019516;28;20480;-67
2022/03/27 06:21:46;;;;;;;43.33;19.77;;;;;;;4.44;nan;101592.81;5007103;28;20045;-67
2022/03/27 06:24:12;;;;;;;49.53;20.77;;;;;;;4.63;nan;101620.47;5028195;28;20056;-68
2022/03/27 06:26:39;;;;;;;50.03;21.27;;;;;;;4.70;nan;101629.31;5027071;28;20138;-67
2022/03/27 06:29:05;;;;;;;54.70;22.08;;;;;;;4.65;nan;101608.09;5024841;28;20042;-68
2022/03/27 06:31:30;;;;;;;46.88;20.65;;;;;;;4.80;nan;101622.19;5032656;28;20612;-67
2022/03/27 06:33:56;;;;;;;51.38;20.83;;;;;;;4.97;nan;101643.94;5032045;28;20034;-68
2022/03/27 06:36:21;;;;;;;44.38;20.48;;;;;;;5.04;nan;101629.28;5040439;28;20040;-68
2022/03/27 06:38:47;;;;;;;45.05;19.65;;;;;;;5.03;nan;101614.59;5022837;28;20048;-68
2022/03/27 06:41:13;;;;;;;42.83;18.50;;;;;;;5.21;nan;101631.94;5009542;28;20030;-69
2022/03/27 06:43:39;;;;;;;44.47;19.25;;;;;;;5.36;nan;101645.19;5036785;28;20033;-70
2022/03/27 06:46:05;;;;;;;40.03;18.73;;;;;;;5.52;nan;101653.09;5036673;28;20033;-68
2022/03/27 06:48:31;;;;;;;45.28;19.70;;;;;;;5.53;nan;101636.41;5018970;28;20033;-68
2022/03/27 06:50:56;;;;;;;43.05;19.65;;;;;;;5.72;nan;101650.97;5014540;28;20399;-67
2022/03/27 06:53:24;;;;;;;47.13;19.33;;;;;;;6.23;nan;101716.25;5031024;28;20033;-69
2022/03/27 06:55:53;;;;;;;39.00;18.50;;;;;;;5.89;nan;101642.19;5028006;28;20451;-69
2022/03/27 06:58:18;;;;;;;36.10;17.13;;;;;;;6.18;nan;101662.63;5028668;28;20056;-68
2022/03/27 07:03:28;;;;;;;42.90;17.23;;;;;;;6.42;nan;101660.97;5027712;28;20129;-67
2022/03/27 07:05:54;;;;;;;39.10;16.25;;;;;;;6.62;nan;101668.47;5013456;28;20121;-68
2022/03/27 07:08:20;;;;;;;41.40;17.15;;;;;;;6.82;nan;101678.38;5031745;28;20038;-69
2022/03/27 07:10:47;;;;;;;35.05;15.93;;;;;;;7.00;nan;101674.72;5020864;28;20088;-69
2022/03/27 07:13:15;;;;;;;33.70;14.98;;;;;;;7.21;nan;101679.38;5013864;28;20467;-70
2022/03/27 07:15:41;;;;;;;32.45;13.65;;;;;;;7.32;nan;101655.41;5031431;28;20101;-69
2022/03/27 07:18:07;;;;;;;40.70;13.35;;;;;;;7.57;nan;101658.72;5017191;28;20030;-68
2022/03/27 07:20:38;;;;;;;31.88;12.57;;;;;;;8.04;nan;101686.53;5026228;28;20041;-69
2022/03/27 07:23:08;;;;;;;26.80;12.68;;;;;;;8.23;nan;101681.81;5031634;28;20059;-69
2022/03/27 07:25:35;;;;;;;29.52;13.32;;;;;;;8.43;nan;101690.84;5006838;28;20072;-69
2022/03/27 07:28:04;;;;;;;31.80;13.35;;;;;;;8.56;nan;101695.47;4993990;28;20056;-70
2022/03/27 07:30:31;;;;;;;30.08;13.93;;;;;;;8.72;nan;101694.50;5020120;28;20045;-69
2022/03/27 07:32:57;;;;;;;35.38;13.18;;;;;;;8.83;nan;101704.53;5012185;28;20034;-70
2022/03/27 07:35:25;;;;;;;26.35;12.73;;;;;;;8.89;nan;101698.56;5027810;28;20050;-70
2022/03/27 07:37:52;;;;;;;28.95;13.38;;;;;;;9.17;nan;101708.44;5010062;28;20042;-70
2022/03/27 07:40:18;;;;;;;28.05;12.60;;;;;;;9.29;nan;101708.75;5027621;28;20029;-68
2022/03/27 07:42:49;;;;;;;35.10;12.65;;;;;;;9.39;nan;101711.13;5028764;28;20037;-69
2022/03/27 07:45:20;;;;;;;28.77;12.30;;;;;;;9.55;nan;101713.50;5012911;28;20044;-69
2022/03/27 07:47:46;;;;;;;28.75;13.35;;;;;;;9.69;nan;101712.66;5030124;28;20045;-68
2022/03/27 07:50:13;;;;;;;26.45;12.63;;;;;;;9.83;nan;101707.53;5003898;28;20038;-68
2022/03/27 07:52:40;;;;;;;25.35;12.52;;;;;;;10.00;nan;101714.16;5023695;28;20251;-68
2022/03/27 07:55:07;;;;;;;29.55;13.85;;;;;;;10.24;nan;101712.97;5026166;28;20116;-68
2022/03/27 07:57:33;;;;;;;31.38;13.38;;;;;;;10.38;nan;101714.72;5019423;28;20112;-67
2022/03/27 07:59:58;;;;;;;28.70;13.95;;;;;;;10.44;nan;101710.53;5029066;28;20040;-67
2022/03/27 08:02:24;;;;;;;31.85;13.25;;;;;;;10.64;nan;101716.72;5028170;28;20045;-68
2022/03/27 08:04:49;;;;;;;24.20;12.10;;;;;;;10.77;nan;101731.00;5006625;28;20349;-69
2022/03/27 08:07:15;;;;;;;22.33;11.68;;;;;;;10.89;nan;101720.72;5007661;28;20037;-68
2022/03/27 08:09:41;;;;;;;28.13;11.52;;;;;;;10.95;nan;101712.06;5009383;28;20044;-70
2022/03/27 08:12:09;;;;;;;17.83;10.15;;;;;;;11.12;nan;101721.25;5025547;28;20040;-69
2022/03/27 08:14:36;;;;;;;21.85;9.52;;;;;;;11.38;nan;101727.66;5025129;28;20041;-69
2022/03/27 08:17:03;;;;;;;19.35;9.18;;;;;;;11.56;nan;101727.09;5014780;28;20060;-68
2022/03/27 08:19:29;;;;;;;17.70;8.75;;;;;;;11.73;nan;101740.75;5011193;28;20041;-67
2022/03/27 08:21:54;;;;;;;15.02;8.55;;;;;;;11.70;nan;101726.13;5009439;28;20029;-68
2022/03/27 08:24:20;;;;;;;16.63;7.88;;;;;;;11.86;nan;101735.50;5023435;28;20034;-67
2022/03/27 08:27:02;;;;;;;18.95;8.02;;;;;;;11.84;nan;101724.34;5029367;28;20124;-68
2022/03/27 08:29:36;;;;;;;18.80;8.43;;;;;;;11.90;nan;101734.13;5024783;28;20029;-67
2022/03/27 08:32:04;;;;;;;15.75;7.72;;;;;;;12.00;nan;101734.56;5001393;28;20030;-67
2022/03/27 08:34:32;;;;;;;15.93;7.70;;;;;;;12.03;nan;101736.78;5024431;28;20033;-67
2022/03/27 08:36:58;;;;;;;18.35;8.05;;;;;;;12.01;nan;101738.00;5026800;28;20128;-68
2022/03/27 08:39:25;;;;;;;15.25;7.35;;;;;;;12.00;nan;101737.19;5009736;28;20042;-69
2022/03/27 08:41:54;;;;;;;16.33;8.35;;;;;;;12.01;nan;101753.84;5006078;28;20041;-69
2022/03/27 08:44:21;;;;;;;12.27;7.38;;;;;;;12.05;nan;101755.88;5027007;28;20037;-71
2022/03/27 08:46:49;;;;;;;14.57;7.68;;;;;;;12.09;nan;101751.00;5028189;28;20037;-69
2022/03/27 08:49:33;;;;;;;13.60;7.93;;;;;;;12.12;nan;101751.41;5025617;28;20033;-71
2022/03/27 08:52:17;;;;;;;19.40;8.40;;;;;;;12.13;nan;101758.31;5007863;28;20045;-69
2022/03/27 08:55:01;;;;;;;14.00;7.55;;;;;;;12.15;nan;101749.38;5017091;28;20049;-71
2022/03/27 08:57:54;;;;;;;16.70;9.25;;;;;;;12.21;nan;101767.88;5028019;28;20030;-69
2022/03/27 09:00:29;;;;;;;15.20;7.70;;;;;;;12.22;nan;101751.00;5026012;28;20033;-70
2022/03/27 09:03:00;;;;;;;16.58;7.22;;;;;;;12.30;nan;101748.16;5020421;28;20042;-70
2022/03/27 09:05:26;;;;;;;14.40;7.20;;;;;;;12.38;nan;101762.19;5022712;28;20498;-69
2022/03/27 09:07:53;;;;;;;16.45;7.03;;;;;;;12.33;nan;101737.22;5016194;28;20034;-70
2022/03/27 09:10:21;;;;;;;17.35;7.10;;;;;;;12.42;nan;101740.44;5010984;28;20076;-69
2022/03/27 09:12:47;;;;;;;12.20;6.25;;;;;;;12.53;nan;101753.03;5021395;28;20095;-69
2022/03/27 09:15:13;;;;;;;13.35;6.63;;;;;;;12.61;nan;101756.50;5020882;28;20057;-70
2022/03/27 09:17:57;;;;;;;9.65;5.57;;;;;;;12.69;nan;101749.19;5006867;28;20481;-71
2022/03/27 09:20:34;;;;;;;17.38;6.75;;;;;;;12.73;nan;101758.31;5029775;28;20037;-69
2022/03/27 09:23:21;;;;;;;10.02;5.57;;;;;;;12.77;nan;101743.66;5020427;28;20049;-69
2022/03/27 09:25:58;;;;;;;11.85;5.40;;;;;;;12.82;nan;101743.03;5005916;28;20034;-70
2022/03/27 09:28:39;;;;;;;11.35;4.72;;;;;;;12.89;nan;101738.56;5008989;28;20103;-68
2022/03/27 09:31:14;;;;;;;14.43;5.18;;;;;;;13.05;nan;101749.69;4999195;28;20045;-70
2022/03/27 09:33:46;;;;;;;9.70;4.75;;;;;;;13.14;nan;101751.09;4999844;28;20044;-69
2022/03/27 09:36:19;;;;;;;7.05;4.32;;;;;;;13.27;nan;101750.25;5007199;28;20083;-72
2022/03/27 09:39:16;;;;;;;7.38;3.97;;;;;;;13.38;nan;101744.31;5005538;28;20065;-69
2022/03/27 09:41:47;;;;;;;8.63;3.67;;;;;;;13.51;nan;101744.25;5025698;28;20071;-72
2022/03/27 09:44:16;;;;;;;8.65;3.75;;;;;;;13.55;nan;101734.06;5003761;28;20045;-68
2022/03/27 09:47:08;;;;;;;5.63;3.42;;;;;;;13.63;nan;101748.91;5021357;28;20086;-71
2022/03/27 09:49:34;;;;;;;7.90;3.50;;;;;;;13.67;nan;101748.28;5024288;28;20037;-71
2022/03/27 09:52:08;;;;;;;7.72;4.22;;;;;;;13.79;nan;101745.72;5007350;28;20044;-71
2022/03/27 09:55:07;;;;;;;7.30;3.53;;;;;;;13.90;nan;101744.25;5010021;28;20507;-69
2022/03/27 09:57:35;;;;;;;6.57;3.37;;;;;;;13.98;nan;101751.94;4999642;28;20055;-71
2022/03/27 10:00:19;;;;;;;6.93;3.35;;;;;;;14.06;nan;101740.28;5029781;28;20041;-71
2022/03/27 10:02:46;;;;;;;6.72;2.85;;;;;;;14.17;nan;101748.31;5033053;28;20045;-70
2022/03/27 10:05:14;;;;;;;4.82;3.20;;;;;;;14.25;nan;101737.47;5030462;28;20053;-69
2022/03/27 10:07:41;;;;;;;4.95;3.08;;;;;;;14.40;nan;101750.38;5010560;28;20104;-70
2022/03/27 10:10:09;;;;;;;8.75;2.90;;;;;;;14.54;nan;101740.53;5029493;28;20029;-69
2022/03/27 10:12:38;;;;;;;7.30;3.57;;;;;;;14.61;nan;101756.38;5017224;28;20037;-75
2022/03/27 10:15:16;;;;;;;10.30;3.20;;;;;;;14.74;nan;101750.91;5025907;28;20046;-69
2022/03/27 10:17:46;;;;;;;8.90;3.97;;;;;;;14.78;nan;101735.41;5023455;28;20072;-71
2022/03/27 10:20:13;;;;;;;11.32;4.20;;;;;;;14.83;nan;101741.66;5009870;28;20419;-69
2022/03/27 10:23:02;;;;;;;7.00;3.83;;;;;;;14.84;nan;101743.28;5023694;28;20038;-67
2022/03/27 10:25:34;;;;;;;4.93;3.55;;;;;;;14.91;nan;101759.13;5013571;28;20076;-66
2022/03/27 10:28:06;;;;;;;5.22;3.47;;;;;;;14.94;nan;101753.38;5014403;28;21776;-71
2022/03/27 10:30:33;;;;;;;6.07;3.50;;;;;;;14.96;nan;101748.66;5007592;28;20033;-68
2022/03/27 10:33:01;;;;;;;8.82;3.92;;;;;;;14.95;nan;101748.88;5024023;28;20033;-69
2022/03/27 10:36:05;;;;;;;10.13;4.00;;;;;;;14.99;nan;101756.19;5025471;28;20033;-69
2022/03/27 10:38:40;;;;;;;8.70;4.30;;;;;;;14.95;nan;101743.59;5032634;28;20030;-75
2022/03/27 10:41:13;;;;;;;7.18;3.80;;;;;;;15.08;nan;101749.56;5028778;28;20376;-71
2022/03/27 10:44:21;;;;;;;7.90;4.60;;;;;;;15.16;nan;101748.44;5031388;28;20041;-70
2022/03/27 10:47:13;;;;;;;15.98;5.00;;;;;;;15.29;nan;101747.47;4946072;28;20046;-68
2022/03/27 10:49:39;;;;;;;7.88;4.28;;;;;;;15.22;nan;101728.97;4952234;29;20035;-70
2022/03/27 10:52:06;;;;;;;8.52;3.85;;;;;;;15.36;nan;101742.88;4936533;28;20059;-69
2022/03/27 10:55:07;;;;;;;9.38;4.10;;;;;;;15.44;nan;101747.06;4959478;28;20032;-69
2022/03/27 10:57:38;;;;;;;7.95;3.63;;;;;;;15.32;nan;101734.56;4952843;29;20047;-69
2022/03/27 11:00:06;;;;;;;8.10;4.00;;;;;;;15.41;nan;101735.06;4950107;28;20047;-68
2022/03/27 11:02:49;;;;;;;12.40;6.18;;;;;;;15.42;nan;101723.44;4958573;28;20057;-68
2022/03/27 11:05:37;;;;;;;8.60;4.57;;;;;;;15.66;nan;101728.81;4970625;28;20045;-69
2022/03/27 11:08:15;;;;;;;8.10;4.20;;;;;;;15.70;nan;101736.13;4961032;28;20408;-68
2022/03/27 11:10:43;;;;;;;11.48;4.25;;;;;;;15.74;nan;101723.22;4977056;28;20126;-70
2022/03/27 11:13:31;;;;;;;7.05;4.38;;;;;;;15.73;nan;101727.72;4977662;28;20557;-70
2022/03/27 11:16:14;;;;;;;8.00;4.03;;;;;;;15.72;nan;101733.25;4976366;28;20085;-69
2022/03/27 11:18:48;;;;;;;7.38;4.03;;;;;;;15.63;nan;101734.56;4966709;28;20043;-69
2022/03/27 11:21:34;;;;;;;14.75;4.15;;;;;;;15.71;nan;101732.44;4967870;28;20138;-71
2022/03/27 11:24:02;;;;;;;11.35;5.47;;;;;;;15.74;nan;101734.63;5012835;28;20034;-70
2022/03/27 11:26:29;;;;;;;16.85;11.38;;;;;;;15.73;nan;101729.56;5031746;28;20095;-69
2022/03/27 11:29:10;;;;;;;8.20;4.70;;;;;;;15.77;nan;101733.38;5032843;28;20072;-70
2022/03/27 11:31:38;;;;;;;6.90;4.60;;;;;;;15.78;nan;101723.56;5026391;28;20124;-75
2022/03/27 11:34:09;;;;;;;11.98;4.80;;;;;;;15.88;nan;101735.25;5025186;28;20033;-69
2022/03/27 11:36:40;;;;;;;11.57;7.93;;;;;;;15.81;nan;101718.63;5029745;28;20072;-70
2022/03/27 11:39:36;;;;;;;8.30;4.60;;;;;;;16.02;nan;101732.38;5045316;28;20412;-69
2022/03/27 11:42:25;;;;;;;12.65;5.47;;;;;;;16.01;nan;101731.59;5016686;28;20037;-69
2022/03/27 11:45:09;;;;;;;10.25;4.03;;;;;;;16.00;nan;101731.81;5031286;28;20039;-69
2022/03/27 11:47:40;;;;;;;12.65;5.25;;;;;;;16.05;nan;101734.59;5019989;28;20037;-69